Data for 05/25/2014

Time Sea-Level Adjusted Pressure Absolute Pressure Temperature Relative Humidity Dew Point   
(mb) (inHg) (mb) (inHg) (C) (F) (%) (C) (F)
00:05 1020 30.12 849 25.07 9.9 49.8 81 6.7 44.1
00:10 1020 30.12 849 25.07 10.1 50.1 80 6.8 44.3
00:15 1020 30.12 849 25.07 10 50 81 6.8 44.3
00:20 1020 30.12 849 25.07 9.9 49.7 81 6.7 44.1
00:25 1020 30.12 849 25.07 9.9 49.7 80 6.6 43.9
00:30 1020 30.12 849 25.07 9.9 49.8 79 6.5 43.8
00:35 1020 30.12 849 25.07 9.9 49.7 80 6.6 44
00:40 1020 30.12 849 25.07 9.9 49.7 81 6.8 44.2
00:45 1020 30.12 849 25.07 9.8 49.6 82 6.9 44.3
00:50 1020 30.12 849 25.07 9.7 49.5 82 6.9 44.3
00:55 1020 30.12 849 25.07 9.8 49.6 82 6.8 44.2
01:00 1020 30.12 849 25.07 9.8 49.7 82 6.9 44.5
01:05 1020 30.12 849 25.07 9.8 49.6 82 7 44.5
01:10 1020 30.12 849 25.07 9.9 49.7 83 7.1 44.7
01:15 1020 30.12 849 25.07 9.8 49.7 83 7 44.7
01:20 1020 30.12 849 25.07 9.8 49.6 83 7.1 44.7
01:25 1020 30.12 849 25.07 9.8 49.6 83 7 44.6
01:30 1020 30.12 849 25.07 9.6 49.3 83 6.9 44.4
01:35 1020 30.12 849 25.07 9.5 49.1 83 6.8 44.3
01:40 1020 30.12 849 25.07 9.5 49.1 83 6.7 44
01:45 1020 30.12 849 25.07 9.6 49.2 82 6.7 44
01:50 1020 30.12 849 25.07 9.5 49.1 83 6.8 44.2
01:55 1020 30.12 849 25.07 9.6 49.2 82 6.7 44.1
02:00 1020 30.12 849 25.07 9.7 49.4 82 6.8 44.2
02:05 1020 30.12 849 25.07 9.7 49.4 82 6.8 44.2
02:10 1020 30.12 849 25.07 9.7 49.4 83 6.9 44.4
02:15 1020 30.12 849 25.07 9.6 49.2 82 6.7 44.1
02:20 1020 30.12 849 25.07 9.5 49.2 82 6.7 44.1
02:25 1020 30.12 849 25.07 9.5 49 83 6.7 44
02:30 1020 30.12 849 25.07 9.4 48.9 83 6.6 43.9
02:35 1020 30.12 849 25.07 9.4 48.9 83 6.7 44
02:40 1020 30.12 849 25.07 9.4 48.9 83 6.7 44.1
02:45 1020 30.12 849 25.07 9.5 49 83 6.7 44.1
02:50 1020 30.12 849 25.07 9.5 49 83 6.8 44.2
02:55 1020 30.12 849 25.07 9.5 49.1 83 6.8 44.2
03:00 1020 30.12 849 25.07 9.6 49.2 83 6.8 44.3
03:05 1020 30.12 849 25.07 9.7 49.5 82 6.8 44.3
03:10 1020 30.12 849 25.07 9.8 49.6 82 6.8 44.2
03:15 1020 30.12 849 25.07 9.8 49.7 80 6.6 43.9
03:20 1020 30.12 849 25.07 9.9 49.8 81 6.7 44.1
03:25 1020 30.12 849 25.07 9.9 49.7 81 6.7 44
03:30 1020 30.12 849 25.07 9.7 49.4 81 6.7 44
03:35 1020 30.12 849 25.07 9.4 49 83 6.7 44
03:40 1020 30.12 849 25.07 9.2 48.6 85 6.8 44.2
03:45 1020 30.12 849 25.07 9.1 48.5 85 6.8 44.2
03:50 1020 30.12 849 25.07 9.4 48.8 84 6.8 44.3
03:55 1020 30.12 849 25.07 9.4 49 84 6.9 44.4
04:00 1020 30.12 849 25.07 9.3 48.8 84 6.8 44.2
04:05 1020 30.12 849 25.07 9.3 48.7 84 6.7 44
04:10 1020 30.12 849 25.07 9.3 48.7 84 6.7 44
04:15 1020 30.12 849 25.07 9.2 48.5 84 6.6 43.8
04:20 1020 30.12 849 25.07 9.1 48.3 84 6.5 43.8
04:25 1020 30.12 849 25.07 9.1 48.3 85 6.7 44
04:30 1020 30.12 849 25.07 9.1 48.4 84 6.6 43.8
04:35 1020 30.12 849 25.07 8.8 47.9 85 6.5 43.7
04:40 1020 30.12 849 25.07 8.5 47.4 85 6.2 43.1
04:45 1020 30.12 849 25.07 8.7 47.6 82 5.8 42.5
04:50 1020 30.12 849 25.07 8.7 47.6 83 6 42.8
04:55 1020 30.12 849 25.07 8.8 47.8 84 6.2 43.2
05:00 1020 30.12 849 25.07 8.7 47.7 84 6.2 43.1
05:05 1020 30.12 849 25.07 8.9 48 84 6.3 43.3
05:10 1020 30.12 849 25.07 9.1 48.4 79 5.6 42.1
05:15 1020 30.12 849 25.07 9.2 48.6 78 5.6 42.1
05:20 1020 30.12 849 25.07 9.2 48.6 79 5.7 42.3
05:25 1020 30.12 849 25.07 9.2 48.5 80 5.9 42.6
05:30 1020 30.12 849 25.07 9 48.2 81 6 42.8
05:35 1020 30.12 849 25.07 8.7 47.7 84 6.1 43
05:40 1020 30.12 849 25.07 8.7 47.6 83 6 42.8
05:45 1020 30.12 849 25.07 8.7 47.7 83 6 42.9
05:50 1020 30.12 849 25.07 8.8 47.9 82 6 42.8
05:55 1020 30.12 849 25.07 9.1 48.4 81 6.1 43
06:00 1020 30.12 849 25.07 9.6 49.2 79 6.2 43.1
06:05 1020 30.12 849 25.07 9.8 49.6 79 6.4 43.5
06:10 1020 30.12 849 25.07 9.9 49.9 80 6.7 44
06:15 1020 30.12 849 25.07 10.4 50.7 77 6.6 43.9
06:20 1020 30.12 849 25.07 10.5 50.9 77 6.7 44.1
06:25 1020 30.12 849 25.07 11.1 52 75 6.8 44.2
06:30 1020 30.12 850 25.1 11.7 53 73 6.9 44.5
06:35 1020 30.12 850 25.1 12.2 54 71 7.1 44.8
06:40 1020 30.12 850 25.1 12.3 54.2 70 7.1 44.8
06:45 1021 30.15 850 25.1 12.5 54.6 70 7.3 45.1
06:50 1021 30.15 850 25.1 12.7 54.8 68 7.1 44.7
06:55 1021 30.15 850 25.1 12.6 54.7 70 7.3 45.1
07:00 1021 30.15 850 25.1 12.8 55.1 69 7.4 45.4
07:05 1020 30.12 850 25.1 13.1 55.5 67 7.1 44.9
07:10 1021 30.15 850 25.1 13.3 55.9 66 7.2 45
07:15 1021 30.15 850 25.1 13.1 55.5 67 7.2 45
07:20 1021 30.15 850 25.1 13.5 56.2 65 7 44.5
07:25 1021 30.15 850 25.1 13.8 56.8 65 7.4 45.3
07:30 1020 30.12 850 25.1 14.5 58.1 63 7.7 45.9
07:35 1021 30.15 850 25.1 14.8 58.6 63 7.8 46.1
07:40 1021 30.15 850 25.1 15.2 59.4 61 7.9 46.2
07:45 1021 30.15 850 25.1 15.7 60.2 58 7.4 45.4
07:50 1021 30.15 850 25.1 16.1 60.9 56 7.5 45.5
07:55 1021 30.15 850 25.1 15.8 60.4 58 7.5 45.6
08:00 1021 30.15 850 25.1 15.5 59.8 59 7.6 45.6
08:05 1021 30.15 850 25.1 14.8 58.6 59 7 44.7
08:10 1021 30.15 850 25.1 14.8 58.7 58 6.7 44
08:15 1021 30.15 850 25.1 15 58.9 58 6.9 44.5
08:20 1021 30.15 850 25.1 15.4 59.6 57 7 44.6
08:25 1021 30.15 850 25.1 15.7 60.2 55 6.8 44.3
08:30 1021 30.15 850 25.1 15.6 60.1 56 6.9 44.4
08:35 1021 30.15 850 25.1 15.8 60.4 56 7.1 44.8
08:40 1021 30.15 850 25.1 14.8 58.7 59 7 44.7
08:45 1021 30.15 850 25.1 15.2 59.4 57 6.8 44.2
08:50 1021 30.15 850 25.1 15.6 60.1 57 7.2 44.9
08:55 1020 30.12 850 25.1 16.1 61 54 6.9 44.5
09:00 1020 30.12 850 25.1 16.4 61.5 55 7.5 45.5
09:05 1020 30.12 850 25.1 15.8 60.4 54 6.5 43.7
09:10 1020 30.12 850 25.1 16.3 61.3 54 7 44.6
09:15 1020 30.12 850 25.1 16.4 61.5 52 6.6 43.8
09:20 1020 30.12 850 25.1 16.6 61.8 53 7 44.6
09:25 1020 30.12 849 25.07 16.4 61.6 51 6.3 43.4
09:30 1020 30.12 849 25.07 16.8 62.3 49 6.3 43.3
09:35 1020 30.12 849 25.07 17.3 63.1 48 6.3 43.4
09:40 1020 30.12 849 25.07 16.8 62.2 49 6.2 43.1
09:45 1020 30.12 849 25.07 17.5 63.5 48 6.5 43.7
09:50 1020 30.12 849 25.07 18 64.4 46 6.2 43.2
09:55 1020 30.12 849 25.07 18.3 64.9 45 6.3 43.3
10:00 1020 30.12 849 25.07 18.7 65.7 39 4.6 40.3
10:05 1020 30.12 849 25.07 19 66.1 44 6.5 43.8
10:10 1020 30.12 849 25.07 18.5 65.4 43 5.7 42.3
10:15 1020 30.12 849 25.07 18.9 66 39 4.9 40.8
10:20 1020 30.12 849 25.07 18.6 65.5 42 5.4 41.8
10:25 1020 30.12 849 25.07 18.8 65.8 39 4.7 40.4
10:30 1020 30.12 849 25.07 18.8 65.8 37 4.1 39.3
10:35 1020 30.12 849 25.07 18.7 65.7 37 3.7 38.7
10:40 1020 30.12 849 25.07 19.2 66.5 36 3.9 38.9
10:45 1020 30.12 849 25.07 19 66.2 39 4.9 40.9
10:50 1020 30.12 849 25.07 17.6 63.7 42 4.8 40.7
10:55 1020 30.12 849 25.07 18.4 65.1 39 4.3 39.7
11:00 1019 30.09 849 25.07 18.9 66 40 5 41
11:05 1019 30.09 849 25.07 19.3 66.8 38 4.9 40.9
11:10 1019 30.09 849 25.07 18.8 65.8 40 5 40.9
11:15 1019 30.09 849 25.07 18.8 65.8 39 4.8 40.7
11:20 1019 30.09 849 25.07 19.6 67.3 38 5.1 41.2
11:25 1019 30.09 849 25.07 19.8 67.7 38 5.3 41.5
11:30 1019 30.09 848 25.04 20.4 68.6 36 4.8 40.6
11:35 1019 30.09 848 25.04 20.2 68.4 38 5.7 42.3
11:40 1019 30.09 848 25.04 19 66.1 43 6.3 43.4
11:45 1019 30.09 848 25.04 18.4 65 43 5.7 42.3
11:50 1019 30.09 848 25.04 18.8 65.9 42 5.7 42.3
11:55 1019 30.09 848 25.04 19.6 67.4 39 5.4 41.7
12:00 1019 30.09 848 25.04 20.3 68.5 37 5.4 41.7
12:05 1019 30.09 848 25.04 20.7 69.2 38 6.1 42.9
12:10 1019 30.09 848 25.04 20.7 69.3 37 5.6 42.1
12:15 1019 30.09 848 25.04 20.6 69 39 6.2 43.1
12:20 1019 30.09 848 25.04 20.6 69.1 36 5.3 41.6
12:25 1019 30.09 848 25.04 21.4 70.5 35 5.6 42.1
12:30 1019 30.09 848 25.04 21.7 71.1 35 5.8 42.4
12:35 1019 30.09 848 25.04 22.1 71.7 34 5.9 42.6
12:40 1019 30.09 848 25.04 21.6 70.8 36 6 42.8
12:45 1019 30.09 848 25.04 21.4 70.6 34 5.2 41.3
12:50 1019 30.09 848 25.04 21.6 70.8 36 6 42.9
12:55 1018 30.06 848 25.04 21 69.8 36 5.7 42.2
13:00 1018 30.06 848 25.04 20.9 69.7 36 5.6 42.2
13:05 1018 30.06 847 25.01 20.7 69.3 37 5.5 42
13:10 1018 30.06 847 25.01 21.3 70.3 34 5.2 41.3
13:15 1018 30.06 847 25.01 20.8 69.4 39 6.3 43.4
13:20 1018 30.06 847 25.01 21 69.9 37 6.1 42.9
13:25 1018 30.06 847 25.01 21.3 70.4 36 6 42.8
13:30 1018 30.06 847 25.01 22.1 71.7 33 5.4 41.7
13:35 1018 30.06 847 25.01 22.3 72.1 36 6.5 43.7
13:40 1018 30.06 847 25.01 21.7 71.1 34 5.3 41.5
13:45 1018 30.06 847 25.01 22.2 72 34 5.7 42.2
13:50 1018 30.06 847 25.01 22.5 72.5 34 6.2 43.2
13:55 1018 30.06 847 25.01 22.3 72.2 34 5.9 42.7
14:00 1018 30.06 847 25.01 22.6 72.7 32 5.5 41.9
14:05 1018 30.06 847 25.01 22.7 72.9 32 5.3 41.6
14:10 1018 30.06 847 25.01 22.4 72.3 33 5.4 41.8
14:15 1018 30.06 847 25.01 21.8 71.3 36 6.4 43.5
14:20 1017 30.03 847 25.01 21.7 71 34 5.2 41.4
14:25 1017 30.03 847 25.01 22.8 73.1 32 5.6 42.1
14:30 1017 30.03 847 25.01 22.5 72.4 33 5.7 42.3
14:35 1017 30.03 846 24.98 23.1 73.7 32 5.7 42.2
14:40 1017 30.03 846 24.98 23.7 74.6 32 6.2 43.1
14:45 1017 30.03 846 24.98 23.1 73.6 33 6.3 43.3
14:50 1017 30.03 846 24.98 21.7 71.1 35 5.6 42.1
14:55 1017 30.03 846 24.98 22 71.7 34 5.8 42.5
15:00 1017 30.03 846 24.98 22.7 72.8 33 5.9 42.7
15:05 1017 30.03 846 24.98 23.2 73.8 32 5.9 42.6
15:10 1017 30.03 846 24.98 23.3 73.9 33 6.3 43.4
15:15 1017 30.03 846 24.98 22.1 71.8 34 5.8 42.5
15:20 1017 30.03 846 24.98 21.4 70.5 35 5.6 42.1
15:25 1017 30.03 846 24.98 21.6 70.8 35 5.6 42.2
15:30 1017 30.03 846 24.98 21.9 71.4 34 5.5 42
15:35 1017 30.03 846 24.98 21.9 71.5 34 5.5 41.9
15:40 1017 30.03 846 24.98 22.1 71.7 34 5.8 42.5
15:45 1017 30.03 846 24.98 21.4 70.6 36 6 42.8
15:50 1017 30.03 846 24.98 22.1 71.8 33 5.3 41.6
15:55 1016 30 846 24.98 22.4 72.3 35 6.4 43.4
16:00 1016 30 846 24.98 21.7 71 35 5.9 42.7
16:05 1016 30 846 24.98 21.6 70.9 34 5.1 41.2
16:10 1016 30 846 24.98 21.7 71.1 35 5.7 42.3
16:15 1016 30 846 24.98 22.2 71.9 33 5.3 41.5
16:20 1016 30 846 24.98 21.6 70.9 35 5.8 42.4
16:25 1016 30 846 24.98 20.9 69.6 36 5.6 42.1
16:30 1016 30 846 24.98 21.1 69.9 35 5.2 41.3
16:35 1016 30 846 24.98 21.8 71.2 34 5.2 41.4
16:40 1016 30 846 24.98 22 71.6 34 5.4 41.8
16:45 1016 30 845 24.95 22.3 72.2 32 5.1 41.2
16:50 1016 30 845 24.95 22.2 71.9 34 5.7 42.2
16:55 1016 30 845 24.95 21.1 70.1 35 5.3 41.6
17:00 1016 30 845 24.95 21.3 70.3 34 5 41.1
17:05 1016 30 845 24.95 21.5 70.8 34 5.1 41.2
17:10 1016 30 845 24.95 21.6 70.8 34 5.1 41.3
17:15 1016 30 845 24.95 21.6 70.8 33 5 41
17:20 1016 30 845 24.95 21.6 70.8 33 4.7 40.5
17:25 1016 30 845 24.95 22 71.5 32 4.5 40.1
17:30 1016 30 845 24.95 22.3 72.1 32 4.8 40.6
17:35 1016 30 845 24.95 22.5 72.6 32 5.1 41.2
17:40 1016 30 845 24.95 22.1 71.8 33 5.1 41.3
17:45 1016 30 845 24.95 22 71.5 33 5.3 41.5
17:50 1016 30 845 24.95 21.6 70.9 33 5 41
17:55 1016 30 845 24.95 21.2 70.2 34 4.9 40.8
18:00 1016 30 845 24.95 21.2 70.1 35 5.1 41.2
18:05 1016 30 845 24.95 21 69.9 34 5 40.9
18:10 1016 30 845 24.95 21 69.9 35 5.2 41.3
18:15 1016 30 845 24.95 21.2 70.2 35 5.5 41.8
18:20 1016 30 845 24.95 21.3 70.3 35 5.2 41.3
18:25 1016 30 845 24.95 21.2 70.1 35 5.4 41.8
18:30 1016 30 845 24.95 21.3 70.4 34 5.2 41.3
18:35 1016 30 845 24.95 21.2 70.2 35 5.3 41.6
18:40 1016 30 845 24.95 21.1 70.1 35 5.4 41.6
18:45 1016 30 845 24.95 21.1 69.9 35 5.4 41.7
18:50 1016 30 845 24.95 21.2 70.2 35 5.3 41.6
18:55 1016 30 845 24.95 21.1 70 36 5.7 42.3
19:00 1016 30 845 24.95 20.8 69.5 37 5.9 42.6
19:05 1016 30 845 24.95 20.8 69.5 37 5.9 42.5
19:10 1016 30 845 24.95 20.7 69.2 39 6.2 43.2
19:15 1016 30 845 24.95 20.5 68.8 39 6.3 43.4
19:20 1016 30 845 24.95 20.2 68.4 41 6.6 44
19:25 1016 30 845 24.95 20 68.1 43 7.2 44.9
19:30 1016 30 845 24.95 19.8 67.7 45 7.8 46
19:35 1016 30 845 24.95 19.6 67.3 48 8.4 47
19:40 1016 30 845 24.95 19.3 66.8 50 8.9 48
19:45 1016 30 845 24.95 19 66.2 54 9.6 49.3
19:50 1016 30 845 24.95 18.6 65.5 56 9.8 49.7
19:55 1016 30 845 24.95 18.4 65.1 58 10 49.9
20:00 1016 30 845 24.95 18.1 64.5 59 9.9 49.9
20:05 1016 30 845 24.95 17.8 64 57 9.2 48.6
20:10 1016 30 845 24.95 17.6 63.7 57 9.2 48.5
20:15 1016 30 845 24.95 17.5 63.4 59 9.4 48.9
20:20 1016 30 845 24.95 17.4 63.3 57 8.9 48.1
20:25 1016 30 845 24.95 17.7 63.9 56 9 48.2
20:30 1016 30 845 24.95 17.7 63.8 58 9.3 48.7
20:35 1016 30 845 24.95 17.4 63.3 59 9.5 49
20:40 1016 30 845 24.95 17.5 63.5 58 9.1 48.4
20:45 1016 30 845 24.95 17.3 63.1 59 9.4 48.9
20:50 1016 30 845 24.95 16.8 62.2 60 9.2 48.6
20:55 1016 30 845 24.95 16.9 62.5 57 8.4 47.1
21:00 1016 30 845 24.95 17.3 63.1 58 9 48.1
21:05 1016 30 845 24.95 17.1 62.8 58 9 48.2
21:10 1016 30 845 24.95 16.9 62.5 57 8.4 47.1
21:15 1016 30 845 24.95 17.1 62.7 58 8.8 47.8
21:20 1016 30 845 24.95 16.9 62.4 58 8.7 47.7
21:25 1016 30 845 24.95 16.9 62.5 62 9.8 49.6
21:30 1016 30 845 24.95 16.9 62.3 57 8.4 47.2
21:35 1016 30 845 24.95 16.7 62.1 59 8.8 47.8
21:40 1016 30 845 24.95 16.5 61.6 59 8.5 47.4
21:45 1016 30 845 24.95 16.2 61.1 61 8.6 47.6
21:50 1016 30 845 24.95 16 60.8 59 8.1 46.7
21:55 1016 30 845 24.95 16.5 61.7 58 8.4 47.1
22:00 1016 30 845 24.95 16.6 61.8 56 7.9 46.3
22:05 1016 30 845 24.95 16.6 62 57 8.3 46.9
22:10 1016 30 845 24.95 16.5 61.7 58 8.4 47.1
22:15 1016 30 845 24.95 16.3 61.4 58 8.2 46.8
22:20 1016 30 845 24.95 16 60.8 59 8.2 46.7
22:25 1016 30 846 24.98 15.9 60.5 59 8 46.4
22:30 1016 30 846 24.98 16 60.7 59 8.1 46.6
22:35 1016 30 846 24.98 16.3 61.3 58 8.1 46.6
22:40 1016 30 846 24.98 16.1 61.1 59 8.2 46.8
22:45 1016 30 846 24.98 16.1 61 59 8.2 46.7
22:50 1016 30 846 24.98 16 60.8 60 8.4 47.1
22:55 1016 30 845 24.95 15.8 60.5 61 8.4 47.1
23:00 1016 30 845 24.95 15.8 60.5 61 8.4 47.1
23:05 1016 30 845 24.95 15.8 60.4 60 8.2 46.8
23:10 1016 30 845 24.95 15.9 60.6 59 8.1 46.5
23:15 1016 30 845 24.95 15.7 60.3 60 8 46.4
23:20 1016 30 846 24.98 15.5 59.8 63 8.5 47.4
23:25 1016 30 846 24.98 15.4 59.7 58 7.3 45.1
23:30 1016 30 846 24.98 15.3 59.5 56 6.7 44.1
23:35 1016 30 846 24.98 15 59.1 57 6.6 43.9
23:40 1016 30 846 24.98 14.9 58.8 58 6.9 44.4
23:45 1016 30 846 24.98 15.2 59.3 59 7.2 44.9
23:50 1016 30 846 24.98 15.3 59.5 60 7.6 45.7
23:55 1016 30 846 24.98 15.1 59.1 61 7.7 45.8
24:00 1016 30 846 24.98 14.8 58.7 61 7.4 45.3